Solomon, Kansas
Current Conditions -  °F | °C
As of 10:53 AM on Friday 19 Dec 2014 (Local Time) from KSLN Reporting Station
Overcast Overcast  
Wind Chill: 26°   Ceiling: 1900
Heat Index: 32°   Visibility: 8mi
Dew Point: 28°   Wind: 7mph
Humidity: 85%   Direction: 170°S
Pressure: 30.26"   Gusts: NA
Location:  38.92°N, 97.37°W
Report Text: KSLN 191653Z 17006KT 8SM OVC019 00/M02 A3026 RMK AO2 SLP260 T00001022
Loading
Personal Weather Stations






























Interactive Weather Map New forecast layout! Learn more

10-Day Weather Forecast

Advertisements
Track Severe Weather on mobile